Ferreira, South Africa
Current Conditions -  °F | °C
As of 5:00 AM on Saturday 25 Oct 2014 (Local Time) from FABL Reporting Station
Clear Clear  
Wind Chill: 59°   Ceiling: Unl
Heat Index: 59°   Visibility: 6mi
Dew Point: 45°   Wind: 8mph
Humidity: 59%   Direction: 10°N
Pressure: 30.09"   Gusts: NA
Location:  29.2°S, 26.18°E
Report Text: FABL 250300Z 01007KT CAVOK 15/07 Q1019 NOSIG
Loading
Personal Weather Stations






























Interactive Weather Map
Tropical Storm Tracking
New forecast layout! Learn more

10-Day Weather Forecast

Advertisements
Track Severe Weather on mobile